PNY weather

Hacienda Panoaya Airfield
Amecameca, Mexico, Mexico

Public forecast

Using degrees Celsius for public forecast. Weather courtesy of forecast.io.

METAR (pilot weather report)

Closest report is Hermanos Serdán International Airport, 22.5 nm (41.7 km) E. Retrieved 2019/04/24 00:46 UTC (1 hour ago):

MMPB 240046Z 19012KT 8SM SCT230 23/02 A3017 RMK 8/008 HZY SC

TAF (pilot weather forecast)

Forecast is more than 6 hours old.

Closest forecast is Hermanos Serdán International Airport, 22.5 nm (41.7 km) E. Retrieved 2019/04/23 18:21 UTC (8 hours ago):

TAF MMPB 231614Z 2318/2418 16010KT P6SM BKN250 FM232100 18012G22KT P6SM SCT025 PROB40 2322/2402 5SM VC TSRA BKN020CB FM240400 12010KT P6SM BKN250